Time;durP1;ratioP1;P1;durP2;ratioP2;P2;SDS_P1;SDS_P2;PMS_P1;PMS_P2;Temp;Humidity;BMP_temperature;BMP_pressure;BME280_temperature;BME280_humidity;BME280_pressure;Samples;Min_cycle;Max_cycle;Signal;HPM_P1;HPM_P2
2023/03/13 00:02:10;;;;;;;4.90;1.50;;;13.10;99.90;;;;;;4993946;28;20029;-88
2023/03/13 00:04:36;;;;;;;4.90;1.70;;;13.10;99.90;;;;;;4974772;28;20349;-89
2023/03/13 00:07:02;;;;;;;6.77;1.80;;;13.00;99.90;;;;;;5001244;28;20376;-90
2023/03/13 00:09:27;;;;;;;5.90;1.40;;;13.00;99.90;;;;;;4990580;28;20113;-90
2023/03/13 00:11:53;;;;;;;5.13;1.53;;;13.00;99.90;;;;;;4975713;28;20549;-89
2023/03/13 00:14:19;;;;;;;5.78;1.60;;;13.00;99.90;;;;;;4985486;28;20022;-91
2023/03/13 00:16:44;;;;;;;3.80;1.50;;;13.00;99.90;;;;;;4996730;28;20025;-90
2023/03/13 00:19:11;;;;;;;9.15;2.05;;;13.00;99.90;;;;;;4963198;28;20022;-91
2023/03/13 00:21:37;;;;;;;5.38;1.83;;;13.00;99.90;;;;;;4981213;28;20458;-87
2023/03/13 00:24:03;;;;;;;6.97;2.07;;;13.10;99.90;;;;;;4997105;28;20017;-88
2023/03/13 00:26:31;;;;;;;6.72;2.15;;;13.10;99.90;;;;;;4985103;28;20095;-91
2023/03/13 00:28:57;;;;;;;5.45;1.95;;;13.00;99.90;;;;;;5012756;28;20068;-87
2023/03/13 00:31:28;;;;;;;4.87;1.80;;;13.10;99.90;;;;;;4987991;28;20045;-87
2023/03/13 00:33:57;;;;;;;7.30;1.90;;;13.10;99.90;;;;;;4989182;28;20342;-90
2023/03/13 00:36:33;;;;;;;6.13;2.00;;;13.10;99.90;;;;;;4978696;28;20215;-92
2023/03/13 00:38:59;;;;;;;5.05;1.83;;;13.10;99.90;;;;;;5005415;28;20633;-91
2023/03/13 00:41:27;;;;;;;4.70;1.77;;;13.10;99.90;;;;;;4982947;28;20026;-89
2023/03/13 00:43:53;;;;;;;5.13;1.80;;;13.10;99.90;;;;;;5003410;28;20040;-90
2023/03/13 00:46:22;;;;;;;4.15;1.73;;;13.10;99.90;;;;;;4997795;28;20049;-89
2023/03/13 00:48:48;;;;;;;6.78;1.73;;;13.10;99.90;;;;;;4979557;28;20049;-87
2023/03/13 00:51:16;;;;;;;4.38;1.73;;;13.10;99.90;;;;;;4963281;28;20034;-89
2023/03/13 00:53:43;;;;;;;5.03;1.60;;;13.10;99.90;;;;;;5000627;28;20025;-91
2023/03/13 00:56:11;;;;;;;4.60;1.70;;;13.10;99.90;;;;;;5023821;28;20025;-89
2023/03/13 00:58:39;;;;;;;5.10;1.85;;;13.10;99.90;;;;;;4991710;28;20025;-89
2023/03/13 01:01:18;;;;;;;4.32;1.50;;;13.20;99.90;;;;;;4999678;28;20026;-88
2023/03/13 01:03:46;;;;;;;5.00;1.60;;;13.10;99.90;;;;;;4985049;28;20014;-89
2023/03/13 01:06:16;;;;;;;3.80;1.70;;;13.10;99.90;;;;;;4969302;28;20025;-88
2023/03/13 01:08:42;;;;;;;3.20;1.58;;;13.10;99.90;;;;;;4983234;28;20033;-92
2023/03/13 01:11:11;;;;;;;5.00;1.80;;;13.10;99.90;;;;;;4975398;28;20030;-87
2023/03/13 01:13:37;;;;;;;3.72;1.83;;;13.20;99.90;;;;;;4975681;28;20692;-87
2023/03/13 01:16:05;;;;;;;4.00;1.90;;;13.10;99.90;;;;;;4995742;28;20040;-88
2023/03/13 01:18:31;;;;;;;5.17;1.90;;;13.10;99.90;;;;;;4988106;28;20034;-88
2023/03/13 01:20:56;;;;;;;4.22;1.88;;;13.20;99.90;;;;;;4966030;28;20033;-91
2023/03/13 01:23:22;;;;;;;4.50;1.80;;;13.20;99.90;;;;;;4994040;28;20158;-91
2023/03/13 01:25:48;;;;;;;4.07;2.00;;;13.20;99.90;;;;;;4998565;28;20017;-90
2023/03/13 01:28:14;;;;;;;3.40;1.67;;;13.20;99.90;;;;;;4989668;28;20338;-88
2023/03/13 01:30:39;;;;;;;5.93;2.30;;;13.20;99.90;;;;;;5001513;28;20057;-90
2023/03/13 01:33:05;;;;;;;5.55;2.33;;;13.20;99.90;;;;;;4996413;28;20033;-91
2023/03/13 01:35:31;;;;;;;4.63;2.17;;;13.30;99.90;;;;;;4999224;28;20285;-88
2023/03/13 01:37:56;;;;;;;6.38;2.28;;;13.30;99.90;;;;;;4975127;28;20107;-90
2023/03/13 01:40:22;;;;;;;3.97;2.53;;;13.30;99.90;;;;;;4984628;28;20121;-91
2023/03/13 01:42:59;;;;;;;5.10;2.58;;;13.30;99.90;;;;;;5006507;28;20087;-90
2023/03/13 01:45:56;;;;;;;3.95;2.58;;;13.40;99.90;;;;;;5006877;28;20099;-88
2023/03/13 01:48:26;;;;;;;6.43;3.27;;;13.40;99.90;;;;;;4998593;28;20248;-90
2023/03/13 01:50:55;;;;;;;5.95;3.45;;;13.50;99.90;;;;;;4979720;28;20474;-88
2023/03/13 01:53:22;;;;;;;6.15;3.42;;;13.50;99.90;;;;;;4979279;28;20025;-90
2023/03/13 01:55:48;;;;;;;8.23;3.45;;;13.50;99.90;;;;;;4995887;28;20037;-90
2023/03/13 01:58:14;;;;;;;4.97;3.17;;;13.60;99.90;;;;;;4985235;28;20021;-90
2023/03/13 02:00:41;;;;;;;5.00;2.97;;;13.60;99.90;;;;;;4978342;28;20264;-90
2023/03/13 02:03:12;;;;;;;5.18;2.88;;;13.70;99.90;;;;;;4978703;28;20734;-89
2023/03/13 02:05:40;;;;;;;5.80;2.83;;;13.70;99.90;;;;;;4998140;28;20072;-89
2023/03/13 02:08:14;;;;;;;5.60;3.25;;;13.70;99.90;;;;;;5004884;28;20518;-91
2023/03/13 02:11:07;;;;;;;5.73;3.30;;;13.70;99.90;;;;;;4996199;28;20022;-89
2023/03/13 02:13:33;;;;;;;5.60;3.35;;;13.80;99.90;;;;;;5005986;28;20057;-88
2023/03/13 02:16:00;;;;;;;4.60;3.00;;;13.80;99.90;;;;;;4977087;28;20124;-92
2023/03/13 02:18:25;;;;;;;5.53;2.97;;;13.80;99.90;;;;;;5011408;28;20115;-87
2023/03/13 02:20:55;;;;;;;6.55;3.08;;;13.80;99.90;;;;;;5014647;28;20053;-92
2023/03/13 02:23:52;;;;;;;5.25;3.30;;;13.90;99.90;;;;;;4994508;28;20505;-88
2023/03/13 02:26:18;;;;;;;5.63;3.15;;;13.90;99.90;;;;;;4978926;28;20259;-90
2023/03/13 02:28:44;;;;;;;6.77;3.60;;;13.90;99.90;;;;;;4971818;28;20022;-87
2023/03/13 02:31:09;;;;;;;5.28;3.30;;;14.00;99.90;;;;;;5005784;28;20033;-87
2023/03/13 02:33:40;;;;;;;4.35;2.80;;;14.00;99.90;;;;;;5001068;28;20022;-90
2023/03/13 02:36:07;;;;;;;6.27;2.90;;;14.00;99.90;;;;;;5010680;28;20255;-87
2023/03/13 02:38:43;;;;;;;4.47;2.83;;;14.00;99.90;;;;;;5034189;28;20042;-87
2023/03/13 02:41:09;;;;;;;4.88;2.65;;;14.10;99.90;;;;;;4971887;28;20199;-89
2023/03/13 02:43:37;;;;;;;4.18;2.70;;;14.20;99.90;;;;;;4979821;28;20021;-89
2023/03/13 02:46:16;;;;;;;4.35;2.60;;;14.20;99.90;;;;;;5017836;28;20754;-88
2023/03/13 02:48:51;;;;;;;4.60;2.70;;;14.20;99.90;;;;;;4985976;28;20377;-88
2023/03/13 02:51:26;;;;;;;4.85;2.65;;;14.30;99.90;;;;;;5016864;28;20032;-88
2023/03/13 02:53:54;;;;;;;4.82;2.80;;;14.30;99.90;;;;;;4995393;28;20341;-88
2023/03/13 02:56:23;;;;;;;3.97;2.17;;;14.40;99.90;;;;;;4960553;28;20029;-87
2023/03/13 02:58:48;;;;;;;5.15;2.97;;;14.40;99.90;;;;;;5006878;28;20314;-89
2023/03/13 03:01:14;;;;;;;4.53;2.40;;;14.40;99.90;;;;;;5013528;28;20545;-89
2023/03/13 03:03:39;;;;;;;3.17;2.17;;;14.50;99.90;;;;;;5000190;28;20847;-85
2023/03/13 03:06:06;;;;;;;4.85;2.50;;;14.60;99.90;;;;;;5015921;28;20044;-86
2023/03/13 03:08:32;;;;;;;5.80;2.95;;;14.50;99.90;;;;;;5014716;28;20056;-89
2023/03/13 03:10:58;;;;;;;3.90;2.50;;;14.60;99.90;;;;;;4964251;28;20129;-87
2023/03/13 03:13:24;;;;;;;4.30;2.58;;;14.70;99.90;;;;;;5008565;28;20690;-86
2023/03/13 03:15:50;;;;;;;5.03;2.33;;;14.70;99.90;;;;;;4995950;28;20042;-89
2023/03/13 03:18:15;;;;;;;3.83;2.47;;;14.70;99.90;;;;;;4993178;28;20288;-88
2023/03/13 03:20:41;;;;;;;3.43;2.63;;;14.70;99.90;;;;;;4983946;28;20556;-88
2023/03/13 03:23:07;;;;;;;4.22;2.30;;;14.80;99.90;;;;;;5006691;28;20556;-87
2023/03/13 03:25:32;;;;;;;3.70;2.23;;;14.80;99.90;;;;;;4958427;28;20457;-87
2023/03/13 03:27:58;;;;;;;4.35;2.17;;;14.80;99.90;;;;;;4994510;28;20040;-85
2023/03/13 03:30:23;;;;;;;5.17;2.67;;;14.90;99.90;;;;;;5006917;28;20522;-87
2023/03/13 03:32:49;;;;;;;4.22;2.25;;;14.90;99.90;;;;;;4985856;28;20111;-89
2023/03/13 03:35:15;;;;;;;4.00;2.10;;;15.00;99.90;;;;;;4985771;28;21502;-90
2023/03/13 03:37:41;;;;;;;4.75;2.20;;;15.00;99.90;;;;;;4975950;28;20037;-84
2023/03/13 03:40:08;;;;;;;4.23;2.20;;;15.00;99.90;;;;;;5017664;28;20400;-88
2023/03/13 03:42:34;;;;;;;3.42;1.83;;;15.10;99.90;;;;;;4980388;28;20458;-89
2023/03/13 03:45:00;;;;;;;2.97;2.08;;;15.10;99.90;;;;;;5006568;28;20022;-85
2023/03/13 03:47:25;;;;;;;3.20;1.70;;;15.10;99.90;;;;;;4978391;28;20041;-87
2023/03/13 03:49:51;;;;;;;2.60;1.77;;;15.10;99.90;;;;;;4991919;28;20037;-86
2023/03/13 03:52:17;;;;;;;4.53;2.00;;;15.20;99.90;;;;;;4984899;28;20083;-88
2023/03/13 03:54:42;;;;;;;2.80;1.90;;;15.20;99.90;;;;;;4992940;28;20475;-85
2023/03/13 03:57:08;;;;;;;3.47;1.97;;;15.20;99.90;;;;;;4960215;28;20290;-87
2023/03/13 03:59:34;;;;;;;3.30;1.60;;;15.20;99.90;;;;;;4993441;28;20186;-87
2023/03/13 04:01:59;;;;;;;3.60;2.00;;;15.20;99.90;;;;;;4989979;28;20776;-88
2023/03/13 04:04:25;;;;;;;4.73;2.10;;;15.20;99.90;;;;;;4987594;28;21603;-88
2023/03/13 04:06:51;;;;;;;4.50;2.00;;;15.20;99.90;;;;;;4983749;28;20459;-87
2023/03/13 04:09:18;;;;;;;3.08;2.00;;;15.20;99.90;;;;;;4984064;28;20049;-88
2023/03/13 04:11:44;;;;;;;4.73;2.30;;;15.30;99.90;;;;;;4999641;28;20044;-90
2023/03/13 04:14:09;;;;;;;4.90;1.88;;;15.30;99.90;;;;;;4994388;28;20049;-88
2023/03/13 04:16:35;;;;;;;3.50;1.90;;;15.30;99.90;;;;;;4989160;28;20034;-87
2023/03/13 04:19:01;;;;;;;4.25;1.98;;;15.30;99.90;;;;;;5004424;28;20601;-87
2023/03/13 04:21:26;;;;;;;3.00;2.10;;;15.30;99.90;;;;;;4971820;28;20293;-87
2023/03/13 04:23:52;;;;;;;6.17;2.07;;;15.30;99.90;;;;;;4996603;28;20025;-87
2023/03/13 04:26:17;;;;;;;2.90;1.70;;;15.30;99.90;;;;;;4975365;28;20207;-90
2023/03/13 04:28:43;;;;;;;5.70;2.40;;;15.30;99.90;;;;;;4979986;28;20029;-88
2023/03/13 04:31:09;;;;;;;2.67;1.75;;;15.40;99.90;;;;;;4996650;28;20037;-90
2023/03/13 04:33:35;;;;;;;4.03;2.03;;;15.40;99.90;;;;;;4989542;28;20039;-88
2023/03/13 04:36:02;;;;;;;4.63;1.83;;;15.40;99.90;;;;;;4989710;28;20033;-89
2023/03/13 04:38:28;;;;;;;2.92;1.80;;;15.40;99.90;;;;;;4988672;28;20301;-88
2023/03/13 04:40:53;;;;;;;3.57;1.80;;;15.40;99.90;;;;;;4998705;28;20521;-85
2023/03/13 04:43:19;;;;;;;3.55;1.80;;;15.40;99.90;;;;;;4981181;28;20021;-88
2023/03/13 04:45:46;;;;;;;5.00;2.10;;;15.40;99.90;;;;;;4964618;28;20534;-86
2023/03/13 04:48:12;;;;;;;2.55;1.70;;;15.40;99.90;;;;;;5004081;28;20157;-87
2023/03/13 04:50:38;;;;;;;3.80;1.90;;;15.50;99.90;;;;;;4968589;28;20584;-87
2023/03/13 04:53:03;;;;;;;3.13;1.67;;;15.50;99.90;;;;;;4987067;28;20506;-88
2023/03/13 04:55:29;;;;;;;2.87;1.80;;;15.50;99.90;;;;;;5013761;28;20314;-87
2023/03/13 04:57:55;;;;;;;2.75;1.52;;;15.50;99.90;;;;;;4980544;28;20032;-86
2023/03/13 05:00:20;;;;;;;3.97;1.50;;;15.50;99.90;;;;;;4972550;28;20599;-88
2023/03/13 05:02:46;;;;;;;4.47;1.90;;;15.50;99.90;;;;;;4980971;28;20812;-86
2023/03/13 05:05:12;;;;;;;3.00;1.80;;;15.50;99.90;;;;;;4968650;28;20543;-85
2023/03/13 05:07:37;;;;;;;3.83;1.67;;;15.50;99.90;;;;;;5004930;28;20829;-87
2023/03/13 05:10:03;;;;;;;3.70;1.60;;;15.50;99.90;;;;;;4995931;28;20080;-88
2023/03/13 05:12:29;;;;;;;5.25;1.70;;;15.60;99.90;;;;;;5001442;28;20033;-87
2023/03/13 05:14:55;;;;;;;4.47;1.70;;;15.60;99.90;;;;;;4998444;28;20501;-86
2023/03/13 05:17:21;;;;;;;7.13;2.20;;;15.50;99.90;;;;;;4985205;28;20033;-88
2023/03/13 05:19:46;;;;;;;4.03;1.73;;;15.60;99.90;;;;;;4972942;28;20471;-83
2023/03/13 05:22:12;;;;;;;4.43;2.10;;;15.60;99.90;;;;;;4979798;28;20116;-88
2023/03/13 05:24:38;;;;;;;3.00;1.80;;;15.60;99.90;;;;;;4978871;28;20394;-87
2023/03/13 05:27:05;;;;;;;4.45;1.80;;;15.60;99.90;;;;;;5011480;28;20041;-88
2023/03/13 05:29:30;;;;;;;3.03;1.65;;;15.60;99.90;;;;;;4995484;28;20119;-88
2023/03/13 05:31:56;;;;;;;4.33;1.90;;;15.60;99.90;;;;;;4973383;28;20562;-85
2023/03/13 05:34:22;;;;;;;5.00;1.80;;;15.60;99.90;;;;;;4984732;28;20695;-84
2023/03/13 05:36:48;;;;;;;4.22;1.75;;;15.60;99.90;;;;;;4996760;28;20025;-89
2023/03/13 05:39:13;;;;;;;4.03;1.67;;;15.60;99.90;;;;;;4972817;28;20212;-85
2023/03/13 05:41:39;;;;;;;4.40;1.70;;;15.60;99.90;;;;;;4978512;28;20022;-84
2023/03/13 05:44:05;;;;;;;5.30;2.00;;;15.60;99.90;;;;;;5025525;28;20030;-87
2023/03/13 05:46:31;;;;;;;4.37;1.80;;;15.60;99.90;;;;;;4993776;28;20014;-86
2023/03/13 05:48:56;;;;;;;4.65;1.98;;;15.60;99.90;;;;;;4992649;28;20034;-85
2023/03/13 05:51:22;;;;;;;4.57;2.00;;;15.60;99.90;;;;;;5003594;28;20036;-89
2023/03/13 05:53:48;;;;;;;3.42;1.60;;;15.60;99.90;;;;;;4988271;28;20132;-86
2023/03/13 05:56:13;;;;;;;6.30;2.20;;;15.60;99.90;;;;;;4977359;28;20252;-87
2023/03/13 05:58:39;;;;;;;5.72;1.85;;;15.60;99.90;;;;;;5016803;28;20305;-87
2023/03/13 06:01:07;;;;;;;5.10;2.00;;;15.60;99.90;;;;;;5007753;28;20120;-89
2023/03/13 06:03:33;;;;;;;4.35;1.77;;;15.60;99.90;;;;;;4966493;28;20469;-88
2023/03/13 06:05:59;;;;;;;4.35;1.70;;;15.60;99.90;;;;;;4992244;28;20098;-88
2023/03/13 06:08:24;;;;;;;4.33;1.83;;;15.60;99.90;;;;;;4973512;28;20060;-88
2023/03/13 06:10:50;;;;;;;5.45;1.85;;;15.70;99.90;;;;;;4979700;28;20029;-85
2023/03/13 06:13:16;;;;;;;4.27;1.90;;;15.70;99.90;;;;;;5001351;28;20117;-88
2023/03/13 06:15:41;;;;;;;3.92;1.83;;;15.70;99.90;;;;;;4997813;28;20025;-87
2023/03/13 06:18:07;;;;;;;4.53;1.80;;;15.70;99.90;;;;;;4999095;28;20648;-87
2023/03/13 06:20:32;;;;;;;5.07;2.23;;;15.70;99.90;;;;;;4991428;28;20220;-89
2023/03/13 06:22:58;;;;;;;5.45;2.03;;;15.70;99.90;;;;;;4988673;28;20026;-87
2023/03/13 06:25:24;;;;;;;5.97;2.33;;;15.70;99.90;;;;;;4987409;28;20554;-88
2023/03/13 06:27:50;;;;;;;7.05;2.05;;;15.70;99.90;;;;;;5012973;28;20244;-87
2023/03/13 06:30:16;;;;;;;4.22;1.92;;;15.70;99.90;;;;;;5004120;28;20047;-85
2023/03/13 06:32:41;;;;;;;3.47;1.87;;;15.80;99.90;;;;;;4990787;28;20136;-84
2023/03/13 06:35:07;;;;;;;3.70;1.90;;;15.80;99.90;;;;;;4982633;28;20033;-86
2023/03/13 06:37:33;;;;;;;5.63;1.88;;;15.80;99.90;;;;;;4978300;28;20313;-86
2023/03/13 06:39:59;;;;;;;3.73;1.90;;;15.80;99.90;;;;;;4992693;28;20274;-84
2023/03/13 06:42:25;;;;;;;4.97;2.10;;;15.80;99.90;;;;;;5010976;28;20392;-88
2023/03/13 06:44:50;;;;;;;5.53;2.10;;;15.80;99.90;;;;;;4993789;28;20056;-91
2023/03/13 06:47:17;;;;;;;6.27;1.90;;;15.80;99.90;;;;;;4986145;28;20466;-88
2023/03/13 06:49:43;;;;;;;4.97;2.08;;;15.80;99.90;;;;;;4995604;28;20029;-87
2023/03/13 06:52:08;;;;;;;6.68;2.15;;;15.90;99.90;;;;;;4992240;28;20025;-88
2023/03/13 06:54:34;;;;;;;4.70;1.90;;;15.80;99.90;;;;;;4977766;28;20520;-87
2023/03/13 06:57:00;;;;;;;5.55;2.15;;;15.90;99.90;;;;;;4976782;28;20087;-86
2023/03/13 06:59:26;;;;;;;6.20;2.10;;;15.90;99.90;;;;;;4980000;28;20501;-85
2023/03/13 07:01:51;;;;;;;5.65;2.08;;;15.90;99.90;;;;;;4983348;28;20052;-84
2023/03/13 07:04:18;;;;;;;6.03;2.30;;;15.90;99.90;;;;;;4978889;28;20053;-85
2023/03/13 07:06:44;;;;;;;5.57;2.30;;;15.90;99.90;;;;;;5008946;28;20844;-84
2023/03/13 07:09:10;;;;;;;7.55;2.40;;;15.90;99.90;;;;;;4990212;28;20033;-88
2023/03/13 07:11:35;;;;;;;3.90;1.90;;;16.00;99.90;;;;;;4991505;28;20617;-87
2023/03/13 07:14:01;;;;;;;6.23;2.00;;;15.90;99.90;;;;;;5000579;28;20045;-87
2023/03/13 07:16:27;;;;;;;5.73;2.20;;;16.00;99.90;;;;;;4997288;28;20506;-88
2023/03/13 07:18:52;;;;;;;3.60;1.73;;;16.00;99.90;;;;;;4998134;28;20171;-88
2023/03/13 07:21:18;;;;;;;5.07;1.90;;;16.00;99.90;;;;;;4961754;28;20029;-87
2023/03/13 07:23:44;;;;;;;5.47;2.17;;;16.00;99.90;;;;;;4990382;28;20491;-84
2023/03/13 07:26:13;;;;;;;5.73;1.90;;;16.00;99.90;;;;;;4967336;28;20881;-86
2023/03/13 07:28:39;;;;;;;4.45;2.08;;;16.10;99.90;;;;;;5032760;28;20273;-87
2023/03/13 07:31:23;;;;;;;4.93;2.20;;;16.10;99.90;;;;;;4995820;28;20077;-90
2023/03/13 07:33:53;;;;;;;3.83;1.90;;;16.10;99.90;;;;;;5015074;28;20021;-88
2023/03/13 07:36:19;;;;;;;4.68;2.00;;;16.00;99.90;;;;;;4995499;28;20037;-86
2023/03/13 07:38:48;;;;;;;4.43;1.85;;;16.10;99.90;;;;;;4978394;28;20025;-85
2023/03/13 07:41:14;;;;;;;5.07;1.93;;;16.10;99.90;;;;;;4996682;28;20346;-85
2023/03/13 07:43:40;;;;;;;4.15;1.90;;;16.10;99.90;;;;;;5002718;28;20049;-88
2023/03/13 07:46:08;;;;;;;3.65;1.77;;;16.10;99.90;;;;;;4997550;28;20567;-85
2023/03/13 07:48:37;;;;;;;5.90;2.40;;;16.10;99.90;;;;;;4984141;28;20526;-88
2023/03/13 07:51:05;;;;;;;5.50;1.90;;;16.20;99.90;;;;;;4974598;28;20406;-87
2023/03/13 07:53:32;;;;;;;6.53;2.30;;;16.20;99.90;;;;;;4993326;28;20029;-87
2023/03/13 07:56:07;;;;;;;5.53;2.10;;;16.20;99.90;;;;;;4969159;28;20314;-86
2023/03/13 07:58:34;;;;;;;4.03;1.85;;;16.20;99.90;;;;;;5002123;28;20025;-89
2023/03/13 08:01:00;;;;;;;5.43;2.00;;;16.20;99.90;;;;;;4998495;28;20493;-84
2023/03/13 08:03:27;;;;;;;7.57;2.27;;;16.20;99.90;;;;;;4992779;28;20104;-88
2023/03/13 08:06:00;;;;;;;5.97;2.20;;;16.20;99.90;;;;;;4983425;28;20158;-87
2023/03/13 08:08:28;;;;;;;4.50;1.75;;;16.20;99.90;;;;;;5012340;28;20457;-90
2023/03/13 08:10:59;;;;;;;5.13;1.90;;;16.20;99.90;;;;;;5004454;28;20642;-85
2023/03/13 08:13:24;;;;;;;7.03;2.10;;;16.30;99.90;;;;;;4983261;28;20026;-85
2023/03/13 08:15:50;;;;;;;5.07;2.20;;;16.40;99.90;;;;;;5015243;28;20035;-87
2023/03/13 08:18:16;;;;;;;4.23;1.80;;;16.40;99.90;;;;;;5018314;28;20056;-83
2023/03/13 08:20:41;;;;;;;5.13;1.80;;;16.40;99.90;;;;;;5010174;28;20531;-86
2023/03/13 08:23:07;;;;;;;2.83;1.83;;;16.50;99.90;;;;;;4962957;28;20845;-87
2023/03/13 08:25:33;;;;;;;3.33;2.00;;;16.60;99.90;;;;;;4991022;28;20040;-85
2023/03/13 08:27:58;;;;;;;4.17;1.90;;;16.60;99.90;;;;;;4970012;28;20112;-85
2023/03/13 08:30:24;;;;;;;5.15;2.10;;;16.60;99.90;;;;;;4990440;28;20025;-87
2023/03/13 08:32:49;;;;;;;3.67;1.83;;;16.70;99.90;;;;;;4997536;28;20398;-85
2023/03/13 08:35:15;;;;;;;3.00;1.80;;;16.70;99.90;;;;;;4995561;28;20125;-87
2023/03/13 08:37:41;;;;;;;3.87;1.90;;;16.80;99.90;;;;;;4998410;28;20292;-86
2023/03/13 08:40:10;;;;;;;3.40;1.80;;;16.80;99.90;;;;;;4989595;28;22086;-85
2023/03/13 08:42:37;;;;;;;4.90;2.08;;;16.90;99.90;;;;;;4978664;28;20426;-88
2023/03/13 08:45:04;;;;;;;4.97;1.80;;;16.90;99.90;;;;;;5000095;28;21164;-88
2023/03/13 08:47:30;;;;;;;5.80;1.95;;;17.00;99.90;;;;;;4980773;28;20121;-87
2023/03/13 08:49:56;;;;;;;4.03;2.00;;;17.00;99.90;;;;;;4992819;28;20104;-85
2023/03/13 08:52:22;;;;;;;2.30;1.65;;;17.00;99.90;;;;;;5016290;28;20075;-87
2023/03/13 08:54:48;;;;;;;3.57;1.50;;;17.00;99.90;;;;;;4974386;28;20037;-85
2023/03/13 08:57:14;;;;;;;3.45;1.50;;;17.10;99.90;;;;;;4974214;28;20037;-87
2023/03/13 08:59:40;;;;;;;2.50;1.70;;;17.10;99.90;;;;;;4970630;28;20021;-86
2023/03/13 09:02:05;;;;;;;3.83;1.67;;;17.20;99.90;;;;;;4986737;28;20039;-86
2023/03/13 09:04:31;;;;;;;2.90;1.65;;;17.30;99.90;;;;;;4980510;28;20037;-87
2023/03/13 09:06:57;;;;;;;3.73;1.80;;;17.40;99.90;;;;;;4990083;28;20025;-85
2023/03/13 09:09:22;;;;;;;7.00;1.80;;;17.50;99.90;;;;;;4990804;28;20018;-83
2023/03/13 09:11:48;;;;;;;4.00;1.70;;;17.70;99.90;;;;;;4949793;28;20037;-87
2023/03/13 09:14:14;;;;;;;5.38;1.90;;;17.70;99.90;;;;;;4991275;28;20364;-86
2023/03/13 09:16:40;;;;;;;3.90;1.70;;;17.80;99.90;;;;;;4992204;28;20025;-87
2023/03/13 09:19:05;;;;;;;3.67;1.77;;;17.80;99.90;;;;;;4994373;28;20627;-88
2023/03/13 09:21:33;;;;;;;3.17;1.70;;;17.90;99.90;;;;;;5012039;28;20025;-85
2023/03/13 09:24:00;;;;;;;3.95;2.00;;;17.90;99.90;;;;;;5012094;28;20032;-85
2023/03/13 09:26:26;;;;;;;3.85;1.70;;;17.90;99.90;;;;;;4979661;28;20178;-83
2023/03/13 09:28:53;;;;;;;3.83;1.58;;;17.90;99.90;;;;;;4975847;28;20301;-84
2023/03/13 09:31:25;;;;;;;4.17;1.83;;;17.90;99.90;;;;;;5017081;28;20033;-85
2023/03/13 09:33:52;;;;;;;3.10;1.70;;;17.90;99.90;;;;;;4987819;28;20232;-82
2023/03/13 09:36:18;;;;;;;5.55;2.22;;;17.90;99.90;;;;;;5021730;28;20025;-87
2023/03/13 09:38:44;;;;;;;6.25;2.40;;;18.10;99.90;;;;;;4988531;28;20021;-87
2023/03/13 09:41:16;;;;;;;5.33;1.97;;;18.30;99.90;;;;;;5000558;28;20346;-86
2023/03/13 09:43:41;;;;;;;3.47;1.67;;;18.40;99.90;;;;;;4966016;28;20678;-85
2023/03/13 09:46:20;;;;;;;2.97;1.60;;;18.60;99.90;;;;;;5013705;28;20158;-86
2023/03/13 09:48:49;;;;;;;3.05;1.80;;;18.80;99.90;;;;;;4988564;28;20506;-86
2023/03/13 09:51:23;;;;;;;3.47;1.43;;;19.00;99.90;;;;;;5001822;28;20612;-89
2023/03/13 09:54:17;;;;;;;2.72;1.70;;;19.20;99.90;;;;;;4991952;28;20487;-88
2023/03/13 09:56:56;;;;;;;3.17;1.55;;;19.40;99.90;;;;;;4977661;28;20029;-88
2023/03/13 09:59:29;;;;;;;2.88;1.40;;;19.50;99.90;;;;;;4968624;28;20584;-85
2023/03/13 10:01:59;;;;;;;2.65;1.30;;;19.60;99.90;;;;;;4995222;28;20327;-88
2023/03/13 10:04:37;;;;;;;2.57;1.30;;;19.60;99.90;;;;;;5017678;28;20009;-86
2023/03/13 10:07:03;;;;;;;3.88;1.60;;;19.50;99.90;;;;;;5006054;28;20154;-88
2023/03/13 10:09:33;;;;;;;3.47;1.40;;;19.40;99.90;;;;;;5002173;28;20016;-86
2023/03/13 10:12:04;;;;;;;2.38;1.38;;;19.30;99.90;;;;;;5013562;28;20064;-85
2023/03/13 10:14:35;;;;;;;3.78;1.52;;;19.20;99.90;;;;;;4977903;28;20079;-86
2023/03/13 10:17:24;;;;;;;4.10;1.63;;;19.10;99.90;;;;;;5005552;28;20709;-86
2023/03/13 10:20:05;;;;;;;4.25;1.70;;;19.00;99.90;;;;;;4985191;28;20872;-88
2023/03/13 10:22:31;;;;;;;2.70;1.50;;;19.00;99.90;;;;;;5016027;28;20027;-86
2023/03/13 10:25:42;;;;;;;3.05;1.45;;;18.90;99.90;;;;;;4972103;28;20209;-87
2023/03/13 10:28:14;;;;;;;2.75;1.40;;;18.90;99.80;;;;;;4981695;28;20046;-85
2023/03/13 10:30:59;;;;;;;2.57;1.40;;;19.00;99.90;;;;;;4963729;28;20033;-85
2023/03/13 10:33:27;;;;;;;3.78;1.40;;;19.00;99.90;;;;;;5016815;28;20212;-89
2023/03/13 10:36:11;;;;;;;3.25;1.50;;;18.90;99.90;;;;;;5003768;28;20579;-88
2023/03/13 10:38:49;;;;;;;3.95;1.58;;;19.00;99.90;;;;;;5009988;28;20029;-87
2023/03/13 10:41:26;;;;;;;3.00;1.48;;;19.10;99.90;;;;;;4995644;28;20033;-85
2023/03/13 10:43:57;;;;;;;2.27;1.27;;;19.10;99.90;;;;;;5012331;28;20514;-90
2023/03/13 10:46:28;;;;;;;2.83;1.50;;;19.10;99.90;;;;;;4952983;28;20517;-87
2023/03/13 10:48:55;;;;;;;2.63;1.45;;;19.20;99.90;;;;;;5014393;28;20026;-85
2023/03/13 10:51:23;;;;;;;1.88;1.40;;;19.20;99.90;;;;;;4986206;28;20029;-85
2023/03/13 10:53:52;;;;;;;2.25;1.48;;;19.30;99.90;;;;;;5009892;28;20033;-85
2023/03/13 10:56:30;;;;;;;1.77;1.37;;;19.50;99.90;;;;;;5000002;28;20079;-83
2023/03/13 10:58:56;;;;;;;2.95;1.10;;;19.60;99.90;;;;;;4997419;28;20231;-86
2023/03/13 11:01:32;;;;;;;1.95;1.20;;;19.70;99.90;;;;;;4979589;28;20033;-88
2023/03/13 11:04:00;;;;;;;1.40;1.17;;;19.70;99.90;;;;;;4983012;28;20636;-86
2023/03/13 11:06:32;;;;;;;2.72;1.30;;;19.70;99.90;;;;;;4982093;28;20017;-85
2023/03/13 11:09:18;;;;;;;2.27;1.40;;;19.60;99.90;;;;;;5014517;28;20140;-87
2023/03/13 11:11:49;;;;;;;3.00;1.38;;;19.60;99.90;;;;;;4973252;28;20032;-88
2023/03/13 11:14:24;;;;;;;3.42;1.60;;;19.50;99.90;;;;;;4989429;28;20071;-86
2023/03/13 11:16:51;;;;;;;2.85;1.48;;;19.40;99.90;;;;;;4964421;28;20112;-87
2023/03/13 11:19:29;;;;;;;2.42;1.40;;;19.30;99.90;;;;;;4999974;28;20439;-86
2023/03/13 11:22:06;;;;;;;2.17;1.30;;;19.30;99.90;;;;;;4987416;28;20128;-87
2023/03/13 11:24:50;;;;;;;1.98;1.20;;;19.20;99.90;;;;;;4996243;28;20055;-87
2023/03/13 11:27:35;;;;;;;3.43;1.50;;;19.20;99.90;;;;;;4959789;28;1113426;-84
2023/03/13 11:30:19;;;;;;;2.15;1.20;;;19.20;99.90;;;;;;5015979;28;20029;-86
2023/03/13 11:32:54;;;;;;;3.15;1.40;;;19.30;99.90;;;;;;4963323;28;20116;-87
2023/03/13 11:35:39;;;;;;;2.97;1.10;;;19.50;99.90;;;;;;5001052;28;20447;-86
2023/03/13 11:38:18;;;;;;;2.67;1.40;;;19.60;99.90;;;;;;5006627;28;20052;-86
2023/03/13 11:40:53;;;;;;;2.80;1.10;;;19.80;99.10;;;;;;5009668;28;20021;-89
2023/03/13 11:43:37;;;;;;;2.75;1.00;;;19.90;99.80;;;;;;5033516;28;20037;-88
2023/03/13 11:46:31;;;;;;;2.25;1.00;;;20.00;98.30;;;;;;4976578;28;20288;-88
2023/03/13 11:49:46;;;;;;;1.80;1.10;;;20.00;98.10;;;;;;4991755;28;20068;-88
2023/03/13 11:52:41;;;;;;;1.63;0.90;;;20.00;94.00;;;;;;4970151;28;20034;-85
2023/03/13 11:55:19;;;;;;;4.33;1.20;;;19.90;98.70;;;;;;4979830;28;20033;-87
2023/03/13 11:58:06;;;;;;;3.22;1.10;;;20.00;95.50;;;;;;5024293;28;20495;-87
2023/03/13 12:01:08;;;;;;;2.88;1.20;;;20.20;99.90;;;;;;4998406;28;20032;-88
2023/03/13 12:04:14;;;;;;;1.85;1.20;;;20.50;99.30;;;;;;4990240;28;20076;-91
2023/03/13 12:06:42;;;;;;;1.92;1.20;;;20.90;95.90;;;;;;4995736;28;20552;-85
2023/03/13 12:09:25;;;;;;;2.67;1.20;;;21.00;99.90;;;;;;4988044;28;20030;-88
2023/03/13 12:12:03;;;;;;;2.50;1.00;;;21.10;99.10;;;;;;4990399;28;20661;-88
2023/03/13 12:14:55;;;;;;;1.98;1.33;;;21.20;99.80;;;;;;5015826;28;20064;-89
2023/03/13 12:17:28;;;;;;;1.42;1.08;;;21.40;94.60;;;;;;4975167;28;20046;-84
2023/03/13 12:20:08;;;;;;;2.33;1.02;;;21.50;99.90;;;;;;4942446;28;22872;-88
2023/03/13 12:22:56;;;;;;;2.10;1.10;;;21.60;98.40;;;;;;5012097;28;20025;-90
2023/03/13 12:25:27;;;;;;;1.85;1.00;;;21.70;98.60;;;;;;4995395;28;20690;-89
2023/03/13 12:28:03;;;;;;;1.77;1.02;;;21.80;99.90;;;;;;4990795;28;20699;-88
2023/03/13 12:30:41;;;;;;;2.55;1.10;;;22.00;99.90;;;;;;5000339;28;20386;-85
2023/03/13 12:33:29;;;;;;;2.38;0.98;;;22.20;99.50;;;;;;4977747;28;20243;-89
2023/03/13 12:36:18;;;;;;;2.03;1.00;;;22.40;98.00;;;;;;4966908;28;20318;-85
2023/03/13 12:38:59;;;;;;;2.28;1.05;;;22.70;94.70;;;;;;4974365;28;20041;-88
2023/03/13 12:41:40;;;;;;;2.92;0.90;;;22.80;99.70;;;;;;4999993;28;20424;-86
2023/03/13 12:44:14;;;;;;;1.08;0.90;;;23.00;98.00;;;;;;5000889;28;20297;-83
2023/03/13 12:46:44;;;;;;;2.00;1.10;;;23.10;99.90;;;;;;5014275;28;20420;-87
2023/03/13 12:49:42;;;;;;;2.30;1.30;;;23.30;98.90;;;;;;4995980;28;20029;-90
2023/03/13 12:52:32;;;;;;;2.05;1.13;;;23.40;93.40;;;;;;4987725;28;20064;-87
2023/03/13 12:55:19;;;;;;;2.72;1.05;;;23.50;97.30;;;;;;5005908;28;20116;-86
2023/03/13 12:57:54;;;;;;;2.33;0.93;;;23.60;98.40;;;;;;5012541;28;20360;-86
2023/03/13 13:00:23;;;;;;;1.92;0.98;;;23.60;95.00;;;;;;4978127;28;20434;-90
2023/03/13 13:03:20;;;;;;;1.40;1.07;;;23.50;96.60;;;;;;4985129;28;20722;-86